createdAt,value
2018-08-31T00:00:16.874Z,5.47
2018-08-31T00:01:13.800Z,5.62
2018-08-31T00:02:57.132Z,5.60
2018-08-31T00:04:55.820Z,5.45
2018-08-31T00:05:55.784Z,5.40
2018-08-31T00:07:56.078Z,5.50
2018-08-31T00:11:05.464Z,5.65
2018-08-31T00:13:06.069Z,5.60
2018-08-31T00:13:39.578Z,5.62
2018-08-31T00:14:13.094Z,5.50
2018-08-31T00:14:46.652Z,5.60
2018-08-31T00:15:20.248Z,5.20
2018-08-31T00:15:53.790Z,5.20
2018-08-31T00:16:27.328Z,5.37
2018-08-31T00:17:01.033Z,5.28
2018-08-31T00:17:35.204Z,5.45
2018-08-31T00:18:08.780Z,5.50
2018-08-31T00:18:42.327Z,5.37
2018-08-31T00:19:16.162Z,5.30
2018-08-31T00:19:49.696Z,5.53
2018-08-31T00:20:23.304Z,5.42
2018-08-31T00:20:56.829Z,5.37
2018-08-31T00:21:30.354Z,5.50
2018-08-31T00:22:03.901Z,5.65
2018-08-31T00:22:37.596Z,5.80
2018-08-31T00:23:11.138Z,5.50
2018-08-31T00:24:07.964Z,5.42
2018-08-31T00:26:12.692Z,5.65
2018-08-31T00:27:09.804Z,5.72
2018-08-31T00:28:06.664Z,5.80
2018-08-31T00:29:51.678Z,5.33
2018-08-31T00:31:48.460Z,5.67
2018-08-31T00:35:02.177Z,5.72
2018-08-31T00:37:05.112Z,5.90
2018-08-31T00:42:17.035Z,6.03
2018-08-31T00:43:06.532Z,5.87
2018-08-31T00:45:49.356Z,5.78
2018-08-31T00:46:23.204Z,5.92
2018-08-31T00:46:56.748Z,5.65
2018-08-31T00:47:30.331Z,5.83
2018-08-31T00:48:04.286Z,5.90
2018-08-31T00:48:37.782Z,6.00
2018-08-31T00:49:11.345Z,6.00
2018-08-31T00:49:45.046Z,5.83
2018-08-31T00:50:18.595Z,5.92
2018-08-31T00:50:52.237Z,5.92
2018-08-31T00:51:25.803Z,5.70
2018-08-31T00:51:59.338Z,6.00
2018-08-31T00:52:32.947Z,5.90
2018-08-31T00:53:06.894Z,6.08
2018-08-31T00:53:40.443Z,5.97
2018-08-31T00:54:13.986Z,5.90
2018-08-31T00:54:47.564Z,5.78
2018-08-31T00:55:21.138Z,6.10
2018-08-31T00:55:54.691Z,5.95
2018-08-31T00:56:28.221Z,5.80
2018-08-31T00:57:01.764Z,5.90
2018-08-31T00:57:35.320Z,6.03
2018-08-31T00:58:08.880Z,5.60
2018-08-31T00:58:42.447Z,6.00
2018-08-31T00:59:16.000Z,5.78
2018-08-31T00:59:49.580Z,5.97
2018-08-31T01:00:23.190Z,5.92
2018-08-31T01:00:56.774Z,6.00
2018-08-31T01:01:30.306Z,6.20
2018-08-31T01:02:04.004Z,5.78
2018-08-31T01:02:37.540Z,5.78
2018-08-31T01:03:11.050Z,5.90
2018-08-31T01:03:44.588Z,5.87
2018-08-31T01:04:18.112Z,5.67
2018-08-31T01:04:51.652Z,5.80
2018-08-31T01:05:25.244Z,5.90
2018-08-31T01:05:58.889Z,6.20
2018-08-31T01:06:32.446Z,5.85
2018-08-31T01:07:06.168Z,5.83
2018-08-31T01:07:39.786Z,5.97
2018-08-31T01:08:13.323Z,6.00
2018-08-31T01:08:46.856Z,6.20
2018-08-31T01:09:20.398Z,6.40
2018-08-31T01:09:53.964Z,5.90
2018-08-31T01:10:27.520Z,5.90
2018-08-31T01:11:01.112Z,6.10
2018-08-31T01:11:34.696Z,6.05
2018-08-31T01:12:08.626Z,5.95
2018-08-31T01:12:42.216Z,6.22
2018-08-31T01:13:15.744Z,5.95
2018-08-31T01:13:49.346Z,6.10
2018-08-31T01:14:22.872Z,5.97
2018-08-31T01:14:56.463Z,6.03
2018-08-31T01:15:30.022Z,5.80
2018-08-31T01:16:03.650Z,6.55
2018-08-31T01:16:37.290Z,6.25
2018-08-31T01:17:10.833Z,6.40
2018-08-31T01:17:44.422Z,6.35
2018-08-31T01:18:17.992Z,6.10
2018-08-31T01:18:51.532Z,5.90
2018-08-31T01:19:25.124Z,6.37
2018-08-31T01:19:58.807Z,6.33
2018-08-31T01:20:32.377Z,6.10
2018-08-31T01:21:06.219Z,6.30
2018-08-31T01:21:39.758Z,6.03
2018-08-31T01:22:13.306Z,6.00
2018-08-31T01:22:46.850Z,6.08
2018-08-31T01:23:20.431Z,6.00
2018-08-31T01:23:53.971Z,6.00
2018-08-31T01:24:27.536Z,5.80
2018-08-31T01:25:01.102Z,6.05
2018-08-31T01:25:34.847Z,6.50
2018-08-31T01:26:08.404Z,6.22
2018-08-31T01:26:41.934Z,5.90
2018-08-31T01:27:15.490Z,6.28
2018-08-31T01:27:49.072Z,5.92
2018-08-31T01:28:22.613Z,6.00
2018-08-31T01:28:56.158Z,5.80
2018-08-31T01:29:29.702Z,6.05
2018-08-31T01:30:03.742Z,5.97
2018-08-31T01:30:37.298Z,6.00
2018-08-31T01:31:10.828Z,5.95
2018-08-31T01:31:44.368Z,6.00
2018-08-31T01:32:17.932Z,5.95
2018-08-31T01:32:51.450Z,5.60
2018-08-31T01:33:24.982Z,5.75
2018-08-31T01:33:58.552Z,5.90
2018-08-31T01:34:32.172Z,5.50
2018-08-31T01:35:05.834Z,5.87
2018-08-31T01:35:39.382Z,5.90
2018-08-31T01:36:12.932Z,5.70
2018-08-31T01:36:46.455Z,5.87
2018-08-31T01:37:19.984Z,5.97
2018-08-31T01:37:53.536Z,5.30
2018-08-31T01:38:27.083Z,6.12
2018-08-31T01:39:00.644Z,6.15
2018-08-31T01:39:34.468Z,5.95
2018-08-31T01:40:08.136Z,6.00
2018-08-31T01:40:41.883Z,5.70
2018-08-31T01:41:15.384Z,5.80
2018-08-31T01:41:48.962Z,6.08
2018-08-31T01:42:22.512Z,5.78
2018-08-31T01:42:56.082Z,5.70
2018-08-31T01:43:29.639Z,5.70
2018-08-31T01:44:03.183Z,5.75
2018-08-31T01:44:36.788Z,5.80
2018-08-31T01:45:10.382Z,5.65
2018-08-31T01:45:43.896Z,5.80
2018-08-31T01:46:17.442Z,5.85
2018-08-31T01:46:51.000Z,5.75
2018-08-31T01:47:24.541Z,5.87
2018-08-31T01:47:58.103Z,5.97
2018-08-31T01:48:31.673Z,5.70
2018-08-31T01:49:05.262Z,5.75
2018-08-31T01:49:38.806Z,5.87
2018-08-31T01:50:12.703Z,5.85
2018-08-31T01:50:51.914Z,5.70
2018-08-31T01:51:25.487Z,5.67
2018-08-31T01:51:59.034Z,5.72
2018-08-31T01:52:32.651Z,5.58
2018-08-31T01:53:06.161Z,5.90
2018-08-31T01:53:39.697Z,5.80
2018-08-31T01:54:13.240Z,5.80
2018-08-31T01:54:46.763Z,5.80
2018-08-31T01:55:25.871Z,5.75
2018-08-31T01:55:59.442Z,5.85
2018-08-31T01:56:33.124Z,5.90
2018-08-31T01:57:06.676Z,5.75
2018-08-31T01:57:40.198Z,6.30
2018-08-31T01:58:13.746Z,5.70
2018-08-31T01:58:47.294Z,5.75
2018-08-31T01:59:20.820Z,5.78
2018-08-31T01:59:54.351Z,5.80
2018-08-31T02:00:28.153Z,5.80
2018-08-31T02:01:01.716Z,5.80
2018-08-31T02:01:35.333Z,5.50
2018-08-31T02:02:08.892Z,6.08
2018-08-31T02:02:42.445Z,6.00
2018-08-31T02:03:15.958Z,5.50
2018-08-31T02:03:49.662Z,5.42
2018-08-31T02:04:23.194Z,5.80
2018-08-31T02:04:56.807Z,5.70
2018-08-31T02:05:30.374Z,5.65
2018-08-31T02:06:04.305Z,5.67
2018-08-31T02:06:37.840Z,5.70
2018-08-31T02:07:13.695Z,5.72
2018-08-31T02:07:47.251Z,5.95
2018-08-31T02:08:20.785Z,5.90
2018-08-31T02:09:00.016Z,5.90
2018-08-31T02:09:33.594Z,5.90
2018-08-31T02:10:07.151Z,5.80
2018-08-31T02:10:40.702Z,5.80
2018-08-31T02:11:14.360Z,5.70
2018-08-31T02:11:49.099Z,5.87
2018-08-31T02:12:22.686Z,5.70
2018-08-31T02:12:56.250Z,5.87
2018-08-31T02:13:29.836Z,5.95
2018-08-31T02:14:03.691Z,5.90
2018-08-31T02:14:37.216Z,5.75
2018-08-31T02:15:10.782Z,5.83
2018-08-31T02:15:44.402Z,5.65
2018-08-31T02:16:18.004Z,5.85
2018-08-31T02:16:51.561Z,6.00
2018-08-31T02:17:25.094Z,5.62
2018-08-31T02:17:58.645Z,5.60
2018-08-31T02:18:32.210Z,5.92
2018-08-31T02:19:05.753Z,5.80
2018-08-31T02:19:39.319Z,5.47
2018-08-31T02:20:12.916Z,6.00
2018-08-31T02:20:46.427Z,5.53
2018-08-31T02:21:19.990Z,5.70
2018-08-31T02:21:53.508Z,5.80
2018-08-31T02:22:27.160Z,5.70
2018-08-31T02:23:00.695Z,5.80
2018-08-31T02:23:34.296Z,5.80
2018-08-31T02:24:07.912Z,5.72
2018-08-31T02:24:41.458Z,5.92
2018-08-31T02:25:15.046Z,5.55
2018-08-31T02:25:48.618Z,5.75
2018-08-31T02:26:22.162Z,5.72
2018-08-31T02:26:55.661Z,5.53
2018-08-31T02:27:29.224Z,5.83
2018-08-31T02:28:02.774Z,5.60
2018-08-31T02:28:36.278Z,5.60
2018-08-31T02:29:09.804Z,5.60
2018-08-31T02:29:43.346Z,5.75
2018-08-31T02:30:16.911Z,5.90
2018-08-31T02:30:50.443Z,5.75
2018-08-31T02:31:24.046Z,5.62
2018-08-31T02:31:57.599Z,5.65
2018-08-31T02:32:31.128Z,5.60
2018-08-31T02:33:05.066Z,5.70
2018-08-31T02:33:38.565Z,5.70
2018-08-31T02:34:12.096Z,5.87
2018-08-31T02:34:45.652Z,6.08
2018-08-31T02:35:19.200Z,5.90
2018-08-31T02:35:52.725Z,5.95
2018-08-31T02:36:26.326Z,5.75
2018-08-31T02:36:59.878Z,5.80
2018-08-31T02:37:33.385Z,5.60
2018-08-31T02:38:06.902Z,5.60
2018-08-31T02:38:40.522Z,5.62
2018-08-31T02:39:14.103Z,5.47
2018-08-31T02:39:47.587Z,6.03
2018-08-31T02:40:21.120Z,5.90
2018-08-31T02:40:54.650Z,5.92
2018-08-31T02:41:28.201Z,5.90
2018-08-31T02:42:01.768Z,5.90
2018-08-31T02:42:35.447Z,5.87
2018-08-31T02:43:09.008Z,5.90
2018-08-31T02:43:43.534Z,6.40
2018-08-31T02:44:17.138Z,6.33
2018-08-31T02:44:50.698Z,6.30
2018-08-31T02:45:24.374Z,6.33
2018-08-31T02:45:57.905Z,6.10
2018-08-31T02:46:31.481Z,6.47
2018-08-31T02:47:05.050Z,6.22
2018-08-31T02:47:38.607Z,6.60
2018-08-31T02:48:12.138Z,6.42
2018-08-31T02:48:46.077Z,5.90
2018-08-31T02:49:19.627Z,6.42
2018-08-31T02:49:53.172Z,6.30
2018-08-31T02:50:26.733Z,6.10
2018-08-31T02:51:00.418Z,6.40
2018-08-31T02:51:33.957Z,6.35
2018-08-31T02:52:07.488Z,6.00
2018-08-31T02:52:41.014Z,6.10
2018-08-31T02:53:14.668Z,6.37
2018-08-31T02:53:48.240Z,6.20
2018-08-31T02:54:21.780Z,6.47
2018-08-31T02:54:55.305Z,6.20
2018-08-31T02:55:28.858Z,5.90
2018-08-31T02:56:02.392Z,6.30
2018-08-31T02:56:35.919Z,5.80
2018-08-31T02:57:09.416Z,6.10
2018-08-31T02:57:42.997Z,5.92
2018-08-31T02:58:16.551Z,6.28
2018-08-31T02:58:50.111Z,6.10
2018-08-31T02:59:23.640Z,6.03
2018-08-31T02:59:57.192Z,6.08
2018-08-31T03:00:30.745Z,6.30
2018-08-31T03:01:04.336Z,5.90
2018-08-31T03:01:37.944Z,5.97
2018-08-31T03:02:11.464Z,6.20
2018-08-31T03:02:45.004Z,6.25
2018-08-31T03:03:18.530Z,6.00
2018-08-31T03:03:52.074Z,5.97
2018-08-31T03:04:25.624Z,6.40
2018-08-31T03:04:59.162Z,6.50
2018-08-31T03:05:32.688Z,6.10
2018-08-31T03:06:06.301Z,6.00
2018-08-31T03:06:39.866Z,6.10
2018-08-31T03:07:13.596Z,5.90
2018-08-31T03:07:47.152Z,6.20
2018-08-31T03:08:20.769Z,6.28
2018-08-31T03:08:54.348Z,6.00
2018-08-31T03:09:27.905Z,6.08
2018-08-31T03:10:01.426Z,6.30
2018-08-31T03:10:34.929Z,6.37
2018-08-31T03:11:08.523Z,6.08
2018-08-31T03:11:42.108Z,6.05
2018-08-31T03:12:15.608Z,6.00
2018-08-31T03:12:49.176Z,5.78
2018-08-31T03:13:22.746Z,6.20
2018-08-31T03:13:56.314Z,5.90
2018-08-31T03:14:29.858Z,6.10
2018-08-31T03:15:03.424Z,6.28
2018-08-31T03:15:37.002Z,5.80
2018-08-31T03:16:10.532Z,5.92
2018-08-31T03:16:44.064Z,5.90
2018-08-31T03:17:17.639Z,6.00
2018-08-31T03:17:51.196Z,5.85
2018-08-31T03:18:24.792Z,6.03
2018-08-31T03:18:58.358Z,6.15
2018-08-31T03:19:31.880Z,6.05
2018-08-31T03:20:05.490Z,6.20
2018-08-31T03:20:39.036Z,6.00
2018-08-31T03:21:12.635Z,6.08
2018-08-31T03:21:46.153Z,5.90
2018-08-31T03:22:19.697Z,5.87
2018-08-31T03:22:53.252Z,6.00
2018-08-31T03:23:26.796Z,6.00
2018-08-31T03:24:00.333Z,6.25
2018-08-31T03:24:33.935Z,5.95
2018-08-31T03:25:07.523Z,5.90
2018-08-31T03:25:41.040Z,5.90
2018-08-31T03:26:14.587Z,6.00
2018-08-31T03:26:48.140Z,6.12
2018-08-31T03:27:21.686Z,6.10
2018-08-31T03:27:55.564Z,5.62
2018-08-31T03:28:29.117Z,6.33
2018-08-31T03:29:02.655Z,5.90
2018-08-31T03:29:36.219Z,6.05
2018-08-31T03:30:09.791Z,6.40
2018-08-31T03:30:43.319Z,5.78
2018-08-31T03:31:16.867Z,6.00
2018-08-31T03:31:50.383Z,6.03
2018-08-31T03:32:23.948Z,5.90
2018-08-31T03:32:57.484Z,6.05
2018-08-31T03:33:30.995Z,6.10
2018-08-31T03:34:04.686Z,6.00
2018-08-31T03:34:38.190Z,5.90
2018-08-31T03:35:11.748Z,6.12
2018-08-31T03:35:45.340Z,6.17
2018-08-31T03:36:18.882Z,6.25
2018-08-31T03:36:52.437Z,6.50
2018-08-31T03:37:25.995Z,6.28
2018-08-31T03:37:59.560Z,6.00
2018-08-31T03:38:33.092Z,6.50
2018-08-31T03:39:09.379Z,6.50
2018-08-31T03:39:42.911Z,6.28
2018-08-31T03:40:16.479Z,6.30
2018-08-31T03:40:50.027Z,6.12
2018-08-31T03:41:23.531Z,6.22
2018-08-31T03:41:57.059Z,6.40
2018-08-31T03:42:30.613Z,6.30
2018-08-31T03:43:04.429Z,6.30
2018-08-31T03:43:37.995Z,6.20
2018-08-31T03:44:11.609Z,5.97
2018-08-31T03:44:45.168Z,6.22
2018-08-31T03:45:18.692Z,5.80
2018-08-31T03:45:52.250Z,6.05
2018-08-31T03:46:25.771Z,5.97
2018-08-31T03:46:59.299Z,6.28
2018-08-31T03:47:32.825Z,5.70
2018-08-31T03:48:06.399Z,6.03
2018-08-31T03:48:39.928Z,5.85
2018-08-31T03:49:13.454Z,6.00
2018-08-31T03:49:46.995Z,5.72
2018-08-31T03:50:20.583Z,5.90
2018-08-31T03:50:54.112Z,6.15
2018-08-31T03:51:27.833Z,5.95
2018-08-31T03:52:01.407Z,6.12
2018-08-31T03:52:34.957Z,6.00
2018-08-31T03:53:08.469Z,6.12
2018-08-31T03:53:42.018Z,5.78
2018-08-31T03:54:15.600Z,6.08
2018-08-31T03:54:49.351Z,6.78
2018-08-31T03:55:22.939Z,6.37
2018-08-31T03:55:56.463Z,6.30
2018-08-31T03:56:30.080Z,6.40
2018-08-31T03:57:03.713Z,6.80
2018-08-31T03:57:37.380Z,6.45
2018-08-31T03:58:10.985Z,6.70
2018-08-31T03:58:44.497Z,6.43
2018-08-31T03:59:18.073Z,6.72
2018-08-31T03:59:51.818Z,6.67
2018-08-31T04:00:25.368Z,6.50
2018-08-31T04:00:58.858Z,6.80
2018-08-31T04:01:32.421Z,6.50
2018-08-31T04:02:06.023Z,6.80
2018-08-31T04:02:39.539Z,6.75
2018-08-31T04:03:13.083Z,7.00
2018-08-31T04:03:46.669Z,6.80
2018-08-31T04:04:20.241Z,6.45
2018-08-31T04:04:53.775Z,6.45
2018-08-31T04:05:27.334Z,6.50
2018-08-31T04:06:00.903Z,6.95
2018-08-31T04:06:34.428Z,6.62
2018-08-31T04:07:07.974Z,6.30
2018-08-31T04:07:41.543Z,6.30
2018-08-31T04:08:15.211Z,6.62
2018-08-31T04:08:48.767Z,6.28
2018-08-31T04:09:22.283Z,6.50
2018-08-31T04:09:55.826Z,6.55
2018-08-31T04:10:29.355Z,6.45
2018-08-31T04:11:02.875Z,6.55
2018-08-31T04:11:36.425Z,6.30
2018-08-31T04:12:09.961Z,5.92
2018-08-31T04:12:43.479Z,6.10
2018-08-31T04:13:17.016Z,5.75
2018-08-31T04:13:50.519Z,5.97
2018-08-31T04:14:24.041Z,6.03
2018-08-31T04:14:57.753Z,6.35
2018-08-31T04:15:31.262Z,5.58
2018-08-31T04:16:04.820Z,5.95
2018-08-31T04:16:38.349Z,5.50
2018-08-31T04:17:11.917Z,5.30
2018-08-31T04:17:45.481Z,5.37
2018-08-31T04:18:19.057Z,5.33
2018-08-31T04:18:52.633Z,5.42
2018-08-31T04:19:26.159Z,5.58
2018-08-31T04:19:59.685Z,5.12
2018-08-31T04:20:33.247Z,5.28
2018-08-31T04:21:06.809Z,5.55
2018-08-31T04:21:40.344Z,5.45
2018-08-31T04:22:13.877Z,5.33
2018-08-31T04:22:47.457Z,5.20
2018-08-31T04:23:21.005Z,5.30
2018-08-31T04:23:54.522Z,5.12
2018-08-31T04:24:28.056Z,5.28
2018-08-31T04:25:01.606Z,5.50
2018-08-31T04:25:35.119Z,5.15
2018-08-31T04:26:08.703Z,5.30
2018-08-31T04:26:42.284Z,5.10
2018-08-31T04:27:15.827Z,4.90
2018-08-31T04:27:49.367Z,4.90
2018-08-31T04:28:22.909Z,5.45
2018-08-31T04:28:56.413Z,4.85
2018-08-31T04:29:29.943Z,4.80
2018-08-31T04:30:04.120Z,5.12
2018-08-31T04:30:37.620Z,4.90
2018-08-31T04:31:11.171Z,5.20
2018-08-31T04:31:44.718Z,4.90
2018-08-31T04:32:18.280Z,5.10
2018-08-31T04:32:51.907Z,4.80
2018-08-31T04:33:25.496Z,4.80
2018-08-31T04:33:59.113Z,4.90
2018-08-31T04:34:32.673Z,5.05
2018-08-31T04:35:06.590Z,5.03
2018-08-31T04:35:40.129Z,5.22
2018-08-31T04:36:13.689Z,5.08
2018-08-31T04:36:47.298Z,4.78
2018-08-31T04:37:20.869Z,5.00
2018-08-31T04:37:54.398Z,4.90
2018-08-31T04:38:28.008Z,4.90
2018-08-31T04:39:01.530Z,4.50
2018-08-31T04:39:35.112Z,4.90
2018-08-31T04:40:08.721Z,4.60
2018-08-31T04:40:42.320Z,4.80
2018-08-31T04:41:15.895Z,4.53
2018-08-31T04:41:49.425Z,4.87
2018-08-31T04:42:23.010Z,4.75
2018-08-31T04:42:56.675Z,5.10
2018-08-31T04:43:30.088Z,4.90
2018-08-31T04:44:03.644Z,4.87
2018-08-31T04:44:37.213Z,4.60
2018-08-31T04:45:10.732Z,4.90
2018-08-31T04:45:44.246Z,4.83
2018-08-31T04:46:17.760Z,5.00
2018-08-31T04:46:51.368Z,4.72
2018-08-31T04:47:24.948Z,4.60
2018-08-31T04:47:58.492Z,5.00
2018-08-31T04:48:32.032Z,5.00
2018-08-31T04:49:05.781Z,4.78
2018-08-31T04:49:39.276Z,5.10
2018-08-31T04:50:12.915Z,4.90
2018-08-31T04:50:46.434Z,4.78
2018-08-31T04:51:19.992Z,4.80
2018-08-31T04:51:53.544Z,5.00
2018-08-31T04:52:27.088Z,5.00
2018-08-31T04:53:00.627Z,4.80
2018-08-31T04:53:34.194Z,5.17
2018-08-31T04:54:07.738Z,4.90
2018-08-31T04:54:41.252Z,4.70
2018-08-31T04:55:14.795Z,5.10
2018-08-31T04:55:48.332Z,4.87
2018-08-31T04:56:21.893Z,4.85
2018-08-31T04:56:55.431Z,5.20
2018-08-31T04:57:28.970Z,5.00
2018-08-31T04:58:02.529Z,5.00
2018-08-31T04:58:36.039Z,5.28
2018-08-31T04:59:09.589Z,5.10
2018-08-31T04:59:43.130Z,5.00
2018-08-31T05:00:16.672Z,4.90
2018-08-31T05:00:50.185Z,4.87
2018-08-31T05:01:23.862Z,4.83
2018-08-31T05:01:57.413Z,4.78
2018-08-31T05:02:30.947Z,4.80
2018-08-31T05:03:04.715Z,4.95
2018-08-31T05:03:38.304Z,5.10
2018-08-31T05:04:11.954Z,5.20
2018-08-31T05:04:45.491Z,4.50
2018-08-31T05:05:19.063Z,4.80
2018-08-31T05:05:52.613Z,4.80
2018-08-31T05:06:26.123Z,4.60
2018-08-31T05:06:59.695Z,4.78
2018-08-31T05:07:33.251Z,4.90
2018-08-31T05:08:06.831Z,4.70
2018-08-31T05:08:40.364Z,4.83
2018-08-31T05:09:13.888Z,4.53
2018-08-31T05:09:47.441Z,4.60
2018-08-31T05:10:21.067Z,4.70
2018-08-31T05:10:54.673Z,4.75
2018-08-31T05:11:28.207Z,4.70
2018-08-31T05:12:01.817Z,4.70
2018-08-31T05:12:35.401Z,4.75
2018-08-31T05:13:08.964Z,4.80
2018-08-31T05:13:42.542Z,4.60
2018-08-31T05:14:16.070Z,4.95
2018-08-31T05:14:49.602Z,4.62
2018-08-31T05:15:23.151Z,4.60
2018-08-31T05:15:56.956Z,4.60
2018-08-31T05:16:30.471Z,4.80
2018-08-31T05:17:04.090Z,4.70
2018-08-31T05:17:37.602Z,4.72
2018-08-31T05:18:11.255Z,5.25
2018-08-31T05:18:44.828Z,4.78
2018-08-31T05:19:18.347Z,4.80
2018-08-31T05:19:51.867Z,4.83
2018-08-31T05:20:25.403Z,5.00
2018-08-31T05:20:58.943Z,4.90
2018-08-31T05:21:32.475Z,4.80
2018-08-31T05:22:06.194Z,4.80
2018-08-31T05:22:39.668Z,4.70
2018-08-31T05:23:13.171Z,5.05
2018-08-31T05:23:46.769Z,4.95
2018-08-31T05:24:20.332Z,4.80
2018-08-31T05:24:53.885Z,5.00
2018-08-31T05:25:27.471Z,4.80
2018-08-31T05:26:01.126Z,4.60
2018-08-31T05:26:34.633Z,4.83
2018-08-31T05:27:08.135Z,4.80
2018-08-31T05:27:41.680Z,4.90
2018-08-31T05:28:15.233Z,4.95
2018-08-31T05:28:48.786Z,4.72
2018-08-31T05:29:22.365Z,4.70
2018-08-31T05:29:55.937Z,4.60
2018-08-31T05:30:29.477Z,4.75
2018-08-31T05:31:03.069Z,4.78
2018-08-31T05:31:36.605Z,4.60
2018-08-31T05:32:10.150Z,4.60
2018-08-31T05:32:43.689Z,4.80
2018-08-31T05:33:17.275Z,4.72
2018-08-31T05:33:50.923Z,4.65
2018-08-31T05:34:24.508Z,4.83
2018-08-31T05:34:58.056Z,4.70
2018-08-31T05:35:31.598Z,4.45
2018-08-31T05:36:05.219Z,4.80
2018-08-31T05:36:38.847Z,5.10
2018-08-31T05:37:12.405Z,4.60
2018-08-31T05:37:45.916Z,5.17
2018-08-31T05:38:19.477Z,4.70
2018-08-31T05:38:53.059Z,5.00
2018-08-31T05:39:26.600Z,4.90
2018-08-31T05:40:00.162Z,4.60
2018-08-31T05:40:33.671Z,4.70
2018-08-31T05:41:07.215Z,5.10
2018-08-31T05:41:41.342Z,5.05
2018-08-31T05:42:14.887Z,4.60
2018-08-31T05:42:48.395Z,4.80
2018-08-31T05:43:22.002Z,5.00
2018-08-31T05:43:55.560Z,5.00
2018-08-31T05:44:29.093Z,4.78
2018-08-31T05:45:02.659Z,4.95
2018-08-31T05:45:36.285Z,4.70
2018-08-31T05:46:09.822Z,5.05
2018-08-31T05:46:43.355Z,4.97
2018-08-31T05:47:16.915Z,4.85
2018-08-31T05:47:50.469Z,4.80
2018-08-31T05:48:24.053Z,4.90
2018-08-31T05:48:57.603Z,4.92
2018-08-31T05:49:31.128Z,4.90
2018-08-31T05:50:04.941Z,4.80
2018-08-31T05:50:38.499Z,4.85
2018-08-31T05:51:12.021Z,4.97
2018-08-31T05:51:45.573Z,4.90
2018-08-31T05:52:19.098Z,4.87
2018-08-31T05:52:52.619Z,5.00
2018-08-31T05:53:26.131Z,5.03
2018-08-31T05:53:59.668Z,4.90
2018-08-31T05:54:33.224Z,5.00
2018-08-31T05:55:06.836Z,5.00
2018-08-31T05:55:40.353Z,4.90
2018-08-31T05:56:13.886Z,5.10
2018-08-31T05:56:47.467Z,5.08
2018-08-31T05:57:21.023Z,4.90
2018-08-31T05:57:54.523Z,5.20
2018-08-31T05:58:28.048Z,5.20
2018-08-31T05:59:01.604Z,4.90
2018-08-31T05:59:35.193Z,4.67
2018-08-31T06:00:08.876Z,5.00
2018-08-31T06:00:42.415Z,5.10
2018-08-31T06:01:15.960Z,5.00
2018-08-31T06:01:49.510Z,4.78
2018-08-31T06:02:23.080Z,4.92
2018-08-31T06:02:56.739Z,4.70
2018-08-31T06:03:30.277Z,4.83
2018-08-31T06:04:03.835Z,4.95
2018-08-31T06:04:37.380Z,4.72
2018-08-31T06:05:10.970Z,4.90
2018-08-31T06:05:44.525Z,5.00
2018-08-31T06:06:18.091Z,4.80
2018-08-31T06:06:51.595Z,4.80
2018-08-31T06:07:25.137Z,4.90
2018-08-31T06:07:58.672Z,4.80
2018-08-31T06:08:32.191Z,4.97
2018-08-31T06:09:08.456Z,4.90
2018-08-31T06:09:41.985Z,4.97
2018-08-31T06:10:15.546Z,4.80
2018-08-31T06:10:49.102Z,4.90
2018-08-31T06:11:22.659Z,5.05
2018-08-31T06:11:56.273Z,4.60
2018-08-31T06:12:29.875Z,4.92
2018-08-31T06:13:03.511Z,5.00
2018-08-31T06:13:37.071Z,4.95
2018-08-31T06:14:10.831Z,4.80
2018-08-31T06:14:44.405Z,4.90
2018-08-31T06:15:18.154Z,5.00
2018-08-31T06:15:51.691Z,5.00
2018-08-31T06:16:25.221Z,4.60
2018-08-31T06:16:58.783Z,4.83
2018-08-31T06:17:32.349Z,4.90
2018-08-31T06:18:06.055Z,4.78
2018-08-31T06:18:39.615Z,5.10
2018-08-31T06:19:13.225Z,4.90
2018-08-31T06:19:46.763Z,4.90
2018-08-31T06:20:20.315Z,4.90
2018-08-31T06:20:53.896Z,5.20
2018-08-31T06:21:27.473Z,5.00
2018-08-31T06:22:01.027Z,4.78
2018-08-31T06:22:34.525Z,4.70
2018-08-31T06:23:08.109Z,4.97
2018-08-31T06:23:41.655Z,4.70
2018-08-31T06:24:15.197Z,5.00
2018-08-31T06:24:48.926Z,4.72
2018-08-31T06:25:22.493Z,4.80
2018-08-31T06:25:56.035Z,4.90
2018-08-31T06:26:29.595Z,5.15
2018-08-31T06:27:03.163Z,4.95
2018-08-31T06:27:36.697Z,4.92
2018-08-31T06:28:10.260Z,5.17
2018-08-31T06:28:43.763Z,5.05
2018-08-31T06:29:17.347Z,4.70
2018-08-31T06:29:51.301Z,4.75
2018-08-31T06:30:24.859Z,4.70
2018-08-31T06:30:58.411Z,5.00
2018-08-31T06:31:32.008Z,4.83
2018-08-31T06:32:05.621Z,5.10
2018-08-31T06:32:39.223Z,5.10
2018-08-31T06:33:12.909Z,4.90
2018-08-31T06:33:46.440Z,4.75
2018-08-31T06:34:20.003Z,4.95
2018-08-31T06:34:53.590Z,4.67
2018-08-31T06:35:27.170Z,4.70
2018-08-31T06:36:00.746Z,4.72
2018-08-31T06:36:34.305Z,4.70
2018-08-31T06:37:08.035Z,4.80
2018-08-31T06:37:41.595Z,4.80
2018-08-31T06:38:15.413Z,4.53
2018-08-31T06:38:48.943Z,4.80
2018-08-31T06:39:22.543Z,4.97
2018-08-31T06:39:56.105Z,4.83
2018-08-31T06:40:29.667Z,4.67
2018-08-31T06:41:03.209Z,4.72
2018-08-31T06:41:36.761Z,4.90
2018-08-31T06:42:10.314Z,4.70
2018-08-31T06:42:43.857Z,4.60
2018-08-31T06:43:17.395Z,4.70
2018-08-31T06:43:50.889Z,4.85
2018-08-31T06:44:24.403Z,4.90
2018-08-31T06:44:57.931Z,4.60
2018-08-31T06:45:31.655Z,4.90
2018-08-31T06:46:05.369Z,4.80
2018-08-31T06:46:38.933Z,5.00
2018-08-31T06:47:12.613Z,4.78
2018-08-31T06:47:46.163Z,4.80
2018-08-31T06:48:19.713Z,4.70
2018-08-31T06:48:53.256Z,4.60
2018-08-31T06:49:26.974Z,5.03
2018-08-31T06:50:00.516Z,4.85
2018-08-31T06:50:34.104Z,4.60
2018-08-31T06:51:07.650Z,4.67
2018-08-31T06:51:41.163Z,4.58
2018-08-31T06:52:14.690Z,4.80
2018-08-31T06:52:48.233Z,4.40
2018-08-31T06:53:21.787Z,4.92
2018-08-31T06:53:55.328Z,4.80
2018-08-31T06:54:28.887Z,4.62
2018-08-31T06:55:02.434Z,4.67
2018-08-31T06:55:35.977Z,4.62
2018-08-31T06:56:09.519Z,4.75
2018-08-31T06:56:43.062Z,4.92
2018-08-31T06:57:16.602Z,4.90
2018-08-31T06:57:50.164Z,4.90
2018-08-31T06:58:23.695Z,5.00
2018-08-31T06:58:57.314Z,5.00
2018-08-31T06:59:30.823Z,5.15
2018-08-31T07:00:05.067Z,4.80
2018-08-31T07:00:38.641Z,4.75
2018-08-31T07:01:12.236Z,5.00
2018-08-31T07:01:45.897Z,4.80
2018-08-31T07:02:19.475Z,4.70
2018-08-31T07:02:53.052Z,4.50
2018-08-31T07:03:26.545Z,4.65
2018-08-31T07:04:00.073Z,4.92
2018-08-31T07:04:33.678Z,4.80
2018-08-31T07:05:07.884Z,4.90
2018-08-31T07:05:41.410Z,4.70
2018-08-31T07:06:14.971Z,4.60
2018-08-31T07:06:48.587Z,4.78
2018-08-31T07:07:22.147Z,4.70
2018-08-31T07:07:55.696Z,4.60
2018-08-31T07:08:29.358Z,4.70
2018-08-31T07:09:03.675Z,4.70
2018-08-31T07:09:37.265Z,4.72
2018-08-31T07:10:11.064Z,4.85
2018-08-31T07:10:44.583Z,4.95
2018-08-31T07:11:18.547Z,4.60
2018-08-31T07:11:52.087Z,4.87
2018-08-31T07:12:25.752Z,4.72
2018-08-31T07:12:59.219Z,4.70
2018-08-31T07:13:32.729Z,4.92
2018-08-31T07:14:07.272Z,4.60
2018-08-31T07:14:40.829Z,4.85
2018-08-31T07:15:14.363Z,4.92
2018-08-31T07:15:47.888Z,5.00
2018-08-31T07:16:21.429Z,4.70
2018-08-31T07:16:54.998Z,4.90
2018-08-31T07:17:28.550Z,4.70
2018-08-31T07:18:02.079Z,4.60
2018-08-31T07:18:35.641Z,4.87
2018-08-31T07:19:09.223Z,4.80
2018-08-31T07:19:42.757Z,4.87
2018-08-31T07:20:16.287Z,5.10
2018-08-31T07:20:49.854Z,5.00
2018-08-31T07:21:23.446Z,4.60
2018-08-31T07:21:56.983Z,4.55
2018-08-31T07:22:30.529Z,4.97
2018-08-31T07:23:04.642Z,4.83
2018-08-31T07:23:38.141Z,4.70
2018-08-31T07:24:11.703Z,4.80
2018-08-31T07:24:45.237Z,4.78
2018-08-31T07:25:18.752Z,4.75
2018-08-31T07:25:52.389Z,4.70
2018-08-31T07:26:26.409Z,4.70
2018-08-31T07:26:59.983Z,4.70
2018-08-31T07:27:33.525Z,4.60
2018-08-31T07:28:07.075Z,4.80
2018-08-31T07:28:40.637Z,4.95
2018-08-31T07:29:14.205Z,4.90
2018-08-31T07:29:47.730Z,4.85
2018-08-31T07:30:21.236Z,4.80
2018-08-31T07:30:54.741Z,4.90
2018-08-31T07:31:28.307Z,4.80
2018-08-31T07:32:01.909Z,4.60
2018-08-31T07:32:35.494Z,4.70
2018-08-31T07:33:09.043Z,4.80
2018-08-31T07:33:42.614Z,4.50
2018-08-31T07:34:16.143Z,4.90
2018-08-31T07:34:49.687Z,4.80
2018-08-31T07:35:23.259Z,4.80
2018-08-31T07:35:56.796Z,4.90
2018-08-31T07:36:30.410Z,4.72
2018-08-31T07:37:03.955Z,4.70
2018-08-31T07:37:37.497Z,4.90
2018-08-31T07:38:11.009Z,5.05
2018-08-31T07:38:44.550Z,4.67
2018-08-31T07:39:18.104Z,5.15
2018-08-31T07:39:51.675Z,4.90
2018-08-31T07:40:25.243Z,4.90
2018-08-31T07:40:58.790Z,4.70
2018-08-31T07:41:32.329Z,4.75
2018-08-31T07:42:05.920Z,4.83
2018-08-31T07:42:39.479Z,4.80
2018-08-31T07:43:13.060Z,4.97
2018-08-31T07:43:46.623Z,5.00
2018-08-31T07:44:20.149Z,4.58
2018-08-31T07:44:53.688Z,4.80
2018-08-31T07:45:27.287Z,4.80
2018-08-31T07:46:00.941Z,4.62
2018-08-31T07:46:34.481Z,4.80
2018-08-31T07:47:07.981Z,5.00
2018-08-31T07:47:41.552Z,4.95
2018-08-31T07:48:15.057Z,4.83
2018-08-31T07:48:48.619Z,4.45
2018-08-31T07:49:22.163Z,4.70
2018-08-31T07:49:55.706Z,4.55
2018-08-31T07:50:29.438Z,4.70
2018-08-31T07:51:03.117Z,4.70
2018-08-31T07:51:36.635Z,4.65
2018-08-31T07:52:10.163Z,4.65
2018-08-31T07:52:43.718Z,4.60